Time;durP1;ratioP1;P1;durP2;ratioP2;P2;SDS_P1;SDS_P2;PMS_P1;PMS_P2;Temp;Humidity;BMP_temperature;BMP_pressure;BME280_temperature;BME280_humidity;BME280_pressure;Samples;Min_cycle;Max_cycle;Signal;HPM_P1;HPM_P2
2023/05/12 00:00:02;;;;;;;7.03;4.88;;;;;;;9.26;100.00;93583.69;4803144;29;20701;-61
2023/05/12 00:02:30;;;;;;;7.57;5.00;;;;;;;9.31;100.00;93581.22;4803960;29;20058;-60
2023/05/12 00:04:56;;;;;;;8.83;5.33;;;;;;;9.29;100.00;93580.09;4803055;29;20119;-62
2023/05/12 00:07:23;;;;;;;8.50;5.60;;;;;;;9.32;100.00;93582.78;4803644;29;20065;-59
2023/05/12 00:09:50;;;;;;;8.27;5.35;;;;;;;9.33;100.00;93580.81;4802828;29;20151;-59
2023/05/12 00:12:17;;;;;;;8.65;5.38;;;;;;;9.37;100.00;93581.53;4803075;29;20051;-63
2023/05/12 00:14:44;;;;;;;8.27;5.47;;;;;;;9.32;100.00;93579.28;4802826;29;20058;-60
2023/05/12 00:17:12;;;;;;;10.20;5.80;;;;;;;9.34;100.00;93576.91;4803268;29;20127;-62
2023/05/12 00:19:42;;;;;;;7.97;5.00;;;;;;;9.12;100.00;93579.19;4802661;29;20065;-59
2023/05/12 00:22:12;;;;;;;9.40;5.10;;;;;;;8.83;100.00;93576.09;4803039;29;20101;-62
2023/05/12 00:24:39;;;;;;;8.30;5.30;;;;;;;8.87;100.00;93579.56;4802758;29;20531;-59
2023/05/12 00:27:06;;;;;;;8.00;5.32;;;;;;;8.95;100.00;93584.53;4786912;29;20057;-60
2023/05/12 00:29:33;;;;;;;9.73;5.40;;;;;;;9.03;100.00;93582.44;4803200;29;20054;-59
2023/05/12 00:32:00;;;;;;;7.22;4.93;;;;;;;9.16;100.00;93572.47;4801768;29;20408;-60
2023/05/12 00:34:27;;;;;;;9.48;5.75;;;;;;;9.25;100.00;93568.44;4801344;29;20511;-60
2023/05/12 00:36:53;;;;;;;8.00;5.28;;;;;;;9.28;100.00;93575.84;4789974;29;20502;-61
2023/05/12 00:39:20;;;;;;;7.60;4.80;;;;;;;9.26;100.00;93573.50;4802696;29;20043;-61
2023/05/12 00:41:48;;;;;;;7.60;4.27;;;;;;;9.31;100.00;93573.00;4786220;29;20058;-60
2023/05/12 00:44:17;;;;;;;6.30;4.40;;;;;;;9.29;100.00;93574.63;4802912;29;20054;-60
2023/05/12 00:46:44;;;;;;;7.57;5.20;;;;;;;9.36;100.00;93567.09;4786197;29;20481;-60
2023/05/12 00:49:11;;;;;;;6.85;4.32;;;;;;;9.34;100.00;93566.72;4802336;29;20091;-61
2023/05/12 00:51:38;;;;;;;7.18;4.00;;;;;;;9.32;100.00;93560.88;4802176;29;20071;-59
2023/05/12 00:54:05;;;;;;;6.10;4.03;;;;;;;9.33;100.00;93556.94;4785490;29;20046;-59
2023/05/12 00:56:41;;;;;;;9.07;4.80;;;;;;;9.31;100.00;93566.78;4802542;29;20051;-60
2023/05/12 00:59:08;;;;;;;6.53;3.85;;;;;;;9.32;100.00;93551.91;4801646;29;20659;-60
2023/05/12 01:01:35;;;;;;;6.18;3.42;;;;;;;9.31;100.00;93545.63;4786352;29;20395;-61
2023/05/12 01:04:02;;;;;;;7.53;3.45;;;;;;;9.28;100.00;93551.19;4802103;29;20050;-62
2023/05/12 01:06:47;;;;;;;5.43;3.63;;;;;;;9.26;100.00;93548.88;4802364;29;20051;-61
2023/05/12 01:09:14;;;;;;;4.40;2.40;;;;;;;9.33;100.00;93547.97;4798354;29;20880;-62
2023/05/12 01:11:41;;;;;;;4.20;2.67;;;;;;;9.25;100.00;93550.03;4799461;29;20103;-60
2023/05/12 01:14:08;;;;;;;5.32;2.70;;;;;;;9.18;100.00;93550.94;4796739;29;20063;-61
2023/05/12 01:16:44;;;;;;;5.07;2.88;;;;;;;9.03;100.00;93549.59;4796082;29;20975;-62
2023/05/12 01:19:28;;;;;;;5.97;3.60;;;;;;;9.08;100.00;93548.38;4795421;29;20063;-62
2023/05/12 01:21:55;;;;;;;5.88;3.78;;;;;;;9.02;100.00;93548.06;4798481;29;20115;-59
2023/05/12 01:24:26;;;;;;;7.22;3.90;;;;;;;8.93;100.00;93545.84;4799436;29;20051;-60
2023/05/12 01:26:52;;;;;;;6.18;3.38;;;;;;;8.79;100.00;93548.78;4799354;29;20111;-59
2023/05/12 01:29:21;;;;;;;10.20;4.85;;;;;;;8.86;100.00;93551.44;4797858;29;20054;-60
2023/05/12 01:31:48;;;;;;;8.33;5.33;;;;;;;8.91;100.00;93550.19;4799241;29;20042;-60
2023/05/12 01:34:17;;;;;;;7.55;4.15;;;;;;;8.95;100.00;93550.91;4791116;29;20110;-63
2023/05/12 01:36:44;;;;;;;8.63;4.75;;;;;;;8.89;100.00;93552.56;4797189;29;20065;-61
2023/05/12 01:39:11;;;;;;;7.25;4.38;;;;;;;8.85;100.00;93555.34;4781651;29;20034;-61
2023/05/12 01:41:38;;;;;;;8.43;3.80;;;;;;;8.94;100.00;93549.38;4797744;29;20136;-62
2023/05/12 01:44:04;;;;;;;5.33;3.37;;;;;;;9.00;100.00;93553.19;4798033;29;20843;-60
2023/05/12 01:46:31;;;;;;;5.80;3.22;;;;;;;9.02;100.00;93550.03;4781377;29;20053;-60
2023/05/12 01:48:58;;;;;;;7.95;3.90;;;;;;;9.02;100.00;93553.53;4798088;29;20051;-60
2023/05/12 01:51:24;;;;;;;6.38;3.85;;;;;;;8.90;100.00;93554.13;4780292;29;20159;-61
2023/05/12 01:53:51;;;;;;;6.25;3.08;;;;;;;8.91;100.00;93553.69;4775479;29;20063;-61
2023/05/12 01:56:18;;;;;;;5.37;3.13;;;;;;;8.80;100.00;93551.09;4781437;29;20051;-61
2023/05/12 01:58:45;;;;;;;17.63;9.73;;;;;;;8.86;100.00;93556.91;4797216;29;20055;-61
2023/05/12 02:01:12;;;;;;;14.75;7.20;;;;;;;8.86;100.00;93551.44;4780627;29;20565;-60
2023/05/12 02:03:39;;;;;;;8.43;5.60;;;;;;;8.85;100.00;93560.03;4796758;29;20059;-60
2023/05/12 02:06:05;;;;;;;7.63;4.47;;;;;;;8.85;100.00;93554.56;4782433;29;20081;-60
2023/05/12 02:08:32;;;;;;;10.53;5.00;;;;;;;8.77;100.00;93562.09;4797562;29;20054;-61
2023/05/12 02:11:08;;;;;;;8.48;4.70;;;;;;;8.68;100.00;93565.34;4797394;29;20063;-63
2023/05/12 02:13:35;;;;;;;8.10;4.97;;;;;;;8.70;100.00;93557.50;4797124;29;20050;-59
2023/05/12 02:16:02;;;;;;;7.30;4.45;;;;;;;8.83;100.00;93563.19;4796250;29;20069;-59
2023/05/12 02:18:29;;;;;;;7.15;4.65;;;;;;;8.85;100.00;93563.53;4799558;29;20153;-60
2023/05/12 02:20:56;;;;;;;7.47;4.60;;;;;;;8.81;100.00;93554.63;4783589;29;20568;-61
2023/05/12 02:23:23;;;;;;;9.15;4.63;;;;;;;8.88;100.00;93559.22;4800989;29;20047;-60
2023/05/12 02:25:49;;;;;;;7.85;4.63;;;;;;;8.78;100.00;93560.94;4800171;29;20047;-61
2023/05/12 02:28:16;;;;;;;7.88;4.72;;;;;;;8.80;100.00;93564.78;4800566;29;20047;-60
2023/05/12 02:30:47;;;;;;;7.93;4.90;;;;;;;8.78;100.00;93566.41;4799315;29;20063;-60
2023/05/12 02:33:15;;;;;;;7.43;4.80;;;;;;;8.79;100.00;93563.25;4797702;29;20043;-59
2023/05/12 02:35:43;;;;;;;9.63;5.40;;;;;;;8.79;100.00;93557.00;4800317;29;20069;-60
2023/05/12 02:38:10;;;;;;;8.77;4.70;;;;;;;8.82;100.00;93560.88;4801778;29;20417;-59
2023/05/12 02:40:37;;;;;;;8.18;4.68;;;;;;;8.83;100.00;93560.44;4801446;29;20111;-60
2023/05/12 02:43:04;;;;;;;8.40;4.70;;;;;;;8.82;100.00;93558.91;4801098;29;20446;-62
2023/05/12 02:45:31;;;;;;;7.30;4.50;;;;;;;8.74;100.00;93558.22;4801607;29;20047;-60
2023/05/12 02:47:57;;;;;;;8.63;4.65;;;;;;;8.71;100.00;93556.34;4800723;29;20490;-63
2023/05/12 02:50:24;;;;;;;8.40;4.82;;;;;;;8.75;100.00;93556.25;4801319;29;20057;-60
2023/05/12 02:52:51;;;;;;;7.85;4.93;;;;;;;8.74;100.00;93552.00;4769590;29;20502;-60
2023/05/12 02:55:17;;;;;;;9.18;5.55;;;;;;;8.73;100.00;93559.44;4802942;29;20046;-60
2023/05/12 02:57:44;;;;;;;13.50;5.53;;;;;;;8.69;100.00;93561.44;4804285;29;20043;-63
2023/05/12 03:00:11;;;;;;;9.80;6.03;;;;;;;8.68;100.00;93553.66;4804790;29;20050;-60
2023/05/12 03:02:38;;;;;;;9.95;5.75;;;;;;;8.73;100.00;93551.22;4804770;29;20058;-63
2023/05/12 03:05:07;;;;;;;10.13;6.32;;;;;;;8.68;100.00;93556.38;4803897;29;21741;-59
2023/05/12 03:07:34;;;;;;;9.80;6.05;;;;;;;8.75;100.00;93548.06;4804821;29;20078;-59
2023/05/12 03:10:01;;;;;;;12.90;6.90;;;;;;;8.73;100.00;93551.22;4804091;29;20050;-60
2023/05/12 03:12:28;;;;;;;11.23;6.13;;;;;;;8.70;100.00;93554.78;4804523;29;20066;-63
2023/05/12 03:14:55;;;;;;;12.65;6.10;;;;;;;8.65;100.00;93554.44;4787767;29;20058;-59
2023/05/12 03:17:22;;;;;;;21.92;13.68;;;;;;;8.59;100.00;93559.59;4804676;29;20049;-60
2023/05/12 03:19:49;;;;;;;14.98;8.60;;;;;;;8.60;100.00;93550.22;4803483;29;20085;-60
2023/05/12 03:22:16;;;;;;;10.80;6.60;;;;;;;8.56;100.00;93554.97;4804604;29;20045;-59
2023/05/12 03:24:43;;;;;;;11.45;6.90;;;;;;;8.42;100.00;93552.44;4803737;29;20188;-60
2023/05/12 03:27:09;;;;;;;14.02;6.88;;;;;;;8.29;100.00;93552.16;4804333;29;20053;-60
2023/05/12 03:29:36;;;;;;;11.23;6.88;;;;;;;8.19;100.00;93560.09;4804286;29;20126;-63
2023/05/12 03:32:03;;;;;;;13.32;7.75;;;;;;;8.03;100.00;93553.63;4803815;29;20077;-61
2023/05/12 03:34:30;;;;;;;13.20;7.60;;;;;;;7.94;100.00;93545.94;4802931;29;20057;-60
2023/05/12 03:36:57;;;;;;;12.65;7.68;;;;;;;7.70;100.00;93553.97;4803975;29;20062;-60
2023/05/12 03:39:23;;;;;;;14.13;8.00;;;;;;;7.59;100.00;93545.13;4804267;29;20063;-60
2023/05/12 03:41:50;;;;;;;13.98;8.43;;;;;;;7.58;100.00;93547.06;4803656;29;20066;-61
2023/05/12 03:44:17;;;;;;;14.13;8.02;;;;;;;7.57;100.00;93548.28;4804268;29;20063;-60
2023/05/12 03:46:44;;;;;;;14.77;8.10;;;;;;;7.53;100.00;93547.53;4803655;29;20046;-63
2023/05/12 03:49:11;;;;;;;13.55;7.28;;;;;;;7.48;100.00;93550.69;4803601;29;20107;-60
2023/05/12 03:51:38;;;;;;;14.68;7.95;;;;;;;7.40;100.00;93541.81;4803976;29;20103;-60
2023/05/12 03:54:05;;;;;;;15.65;8.38;;;;;;;7.47;100.00;93551.88;4802914;29;21656;-60
2023/05/12 03:56:31;;;;;;;13.90;7.78;;;;;;;7.50;100.00;93548.31;4803902;29;20051;-60
2023/05/12 03:58:58;;;;;;;13.77;7.60;;;;;;;7.46;100.00;93544.84;4803481;29;20508;-60
2023/05/12 04:01:25;;;;;;;16.48;8.00;;;;;;;7.46;100.00;93542.13;4803727;29;20053;-62
2023/05/12 04:03:51;;;;;;;14.88;8.18;;;;;;;7.47;100.00;93553.84;4803242;29;20059;-59
2023/05/12 04:06:18;;;;;;;13.88;7.95;;;;;;;7.46;100.00;93536.66;4802622;29;20049;-60
2023/05/12 04:08:45;;;;;;;12.75;7.18;;;;;;;7.40;100.00;93543.75;4803254;29;20130;-62
2023/05/12 04:11:12;;;;;;;13.93;6.90;;;;;;;7.48;100.00;93539.75;4803436;29;20049;-61
2023/05/12 04:13:39;;;;;;;13.48;6.78;;;;;;;7.55;100.00;93539.72;4802859;29;20497;-59
2023/05/12 04:16:06;;;;;;;14.88;6.63;;;;;;;7.58;100.00;93540.84;4803656;29;20477;-59
2023/05/12 04:18:34;;;;;;;12.68;6.85;;;;;;;7.62;100.00;93541.59;4803465;29;20055;-60
2023/05/12 04:21:01;;;;;;;12.23;6.97;;;;;;;7.67;100.00;93549.34;4802890;29;20043;-59
2023/05/12 04:23:28;;;;;;;11.30;6.80;;;;;;;7.73;100.00;93546.94;4803105;29;20051;-60
2023/05/12 04:25:55;;;;;;;11.88;7.00;;;;;;;7.80;100.00;93546.88;4802908;29;20115;-60
2023/05/12 04:28:22;;;;;;;10.85;6.38;;;;;;;7.81;100.00;93551.16;4803412;29;20452;-60
2023/05/12 04:30:48;;;;;;;10.38;6.38;;;;;;;7.84;100.00;93552.28;4802948;29;20046;-61
2023/05/12 04:33:15;;;;;;;11.40;7.20;;;;;;;7.81;100.00;93564.81;4787079;29;20046;-59
2023/05/12 04:35:42;;;;;;;12.37;7.30;;;;;;;7.90;100.00;93562.34;4802880;29;20051;-60
2023/05/12 04:38:08;;;;;;;11.68;7.10;;;;;;;7.85;100.00;93562.81;4786898;29;20051;-61
2023/05/12 04:40:35;;;;;;;13.50;6.63;;;;;;;7.73;100.00;93555.16;4802953;29;20050;-60
2023/05/12 04:43:01;;;;;;;11.48;6.53;;;;;;;7.86;100.00;93572.56;4802465;29;20047;-59
2023/05/12 04:45:29;;;;;;;12.82;6.50;;;;;;;8.00;100.00;93568.91;4803067;29;20055;-59
2023/05/12 04:47:55;;;;;;;12.83;7.40;;;;;;;8.16;100.00;93566.38;4802393;29;20209;-60
2023/05/12 04:50:22;;;;;;;12.80;7.22;;;;;;;8.16;100.00;93569.09;4802947;29;20085;-62
2023/05/12 04:52:49;;;;;;;11.65;7.18;;;;;;;8.27;100.00;93568.19;4786073;29;20043;-62
2023/05/12 04:55:16;;;;;;;11.93;7.13;;;;;;;8.20;100.00;93561.63;4802542;29;20047;-60
2023/05/12 04:57:42;;;;;;;11.95;7.38;;;;;;;8.31;100.00;93572.44;4801881;29;20138;-62
2023/05/12 05:00:10;;;;;;;11.90;7.13;;;;;;;8.42;100.00;93571.56;4802061;29;20051;-59
2023/05/12 05:02:37;;;;;;;11.48;7.25;;;;;;;8.46;100.00;93575.81;4788011;29;20250;-59
2023/05/12 05:05:04;;;;;;;13.00;7.40;;;;;;;8.59;100.00;93567.81;4793950;29;20059;-60
2023/05/12 05:07:31;;;;;;;11.80;6.82;;;;;;;8.85;100.00;93571.75;4802169;29;20116;-61
2023/05/12 05:09:57;;;;;;;11.18;6.65;;;;;;;9.05;100.00;93568.34;4785612;29;20058;-59
2023/05/12 05:12:24;;;;;;;9.67;6.13;;;;;;;9.18;100.00;93570.09;4802328;29;20405;-62
2023/05/12 05:14:51;;;;;;;10.40;6.43;;;;;;;9.29;100.00;93569.16;4802031;29;20053;-60
2023/05/12 05:17:17;;;;;;;10.80;7.30;;;;;;;9.23;100.00;93568.06;4801955;29;20097;-61
2023/05/12 05:19:45;;;;;;;12.93;8.05;;;;;;;8.87;100.00;93563.91;4801675;29;20055;-65
2023/05/12 05:22:24;;;;;;;12.43;7.65;;;;;;;9.07;100.00;93564.00;4787531;29;20069;-60
2023/05/12 05:24:51;;;;;;;13.20;8.60;;;;;;;8.95;100.00;93567.31;4801647;29;20063;-62
2023/05/12 05:27:18;;;;;;;14.45;7.60;;;;;;;9.04;100.00;93570.31;4802250;29;20038;-60
2023/05/12 05:29:44;;;;;;;13.40;8.23;;;;;;;9.39;100.00;93562.72;4801684;29;20505;-64
2023/05/12 05:32:11;;;;;;;12.43;7.75;;;;;;;9.29;100.00;93567.19;4802121;29;20054;-60
2023/05/12 05:34:38;;;;;;;16.63;8.77;;;;;;;9.64;100.00;93558.78;4785750;29;20118;-60
2023/05/12 05:37:05;;;;;;;13.67;8.20;;;;;;;9.56;100.00;93563.63;4784895;29;20880;-60
2023/05/12 05:39:31;;;;;;;12.90;8.32;;;;;;;9.63;100.00;93560.00;4785888;29;20115;-63
2023/05/12 05:41:58;;;;;;;12.68;8.43;;;;;;;9.84;100.00;93565.09;4801490;29;20051;-60
2023/05/12 05:44:25;;;;;;;12.32;7.50;;;;;;;10.15;100.00;93568.41;4785804;29;20106;-60
2023/05/12 05:46:51;;;;;;;11.55;7.70;;;;;;;10.31;100.00;93548.56;4784937;29;20055;-61
2023/05/12 05:49:18;;;;;;;13.30;8.67;;;;;;;10.23;100.00;93565.56;4801181;29;20074;-62
2023/05/12 05:51:45;;;;;;;14.27;8.30;;;;;;;9.84;100.00;93565.09;4801333;29;20042;-61
2023/05/12 05:54:11;;;;;;;13.10;8.52;;;;;;;10.04;100.00;93564.34;4770854;29;20050;-60
2023/05/12 05:56:38;;;;;;;12.65;7.70;;;;;;;10.67;100.00;93564.28;4802142;29;20085;-63
2023/05/12 05:59:05;;;;;;;12.13;8.00;;;;;;;10.97;100.00;93565.22;4800965;29;21714;-61
2023/05/12 06:01:31;;;;;;;12.57;7.67;;;;;;;11.42;100.00;93564.53;4802010;29;20062;-61
2023/05/12 06:03:58;;;;;;;12.00;7.75;;;;;;;12.02;100.00;93564.25;4800914;29;20080;-63
2023/05/12 06:06:25;;;;;;;11.30;7.85;;;;;;;14.09;100.00;93561.94;4786040;29;20039;-61
2023/05/12 06:08:54;;;;;;;10.88;7.53;;;;;;;16.14;100.00;93554.97;4785210;29;20050;-62
2023/05/12 06:11:21;;;;;;;11.35;8.13;;;;;;;17.64;95.31;93552.19;4801939;29;20736;-60
2023/05/12 06:13:48;;;;;;;9.37;6.87;;;;;;;19.86;76.35;93553.78;4799601;29;20431;-60
2023/05/12 06:16:15;;;;;;;10.32;8.10;;;;;;;18.63;79.08;93549.69;4801399;29;20123;-59
2023/05/12 06:18:41;;;;;;;10.75;7.63;;;;;;;21.31;67.88;93555.94;4800534;29;20059;-60
2023/05/12 06:21:08;;;;;;;9.25;6.55;;;;;;;23.84;55.35;93552.63;4801622;29;20130;-60
2023/05/12 06:23:35;;;;;;;9.82;7.20;;;;;;;23.85;53.21;93556.22;4801694;29;20483;-63
2023/05/12 06:26:02;;;;;;;9.53;6.87;;;;;;;22.59;54.70;93558.53;4801105;29;20091;-61
2023/05/12 06:28:29;;;;;;;8.43;7.00;;;;;;;19.19;63.97;93561.81;4801420;29;20065;-60
2023/05/12 06:30:58;;;;;;;10.40;7.88;;;;;;;18.09;77.15;93560.75;4803335;29;20062;-60
2023/05/12 06:33:24;;;;;;;9.13;7.20;;;;;;;16.76;85.36;93559.41;4805205;29;20400;-60
2023/05/12 06:35:51;;;;;;;13.00;9.13;;;;;;;17.76;81.55;93564.31;4804314;29;20047;-62
2023/05/12 06:38:18;;;;;;;12.00;7.90;;;;;;;16.25;88.82;93560.03;4805291;29;20047;-61
2023/05/12 06:40:44;;;;;;;10.57;7.18;;;;;;;15.84;94.01;93570.47;4804722;29;20074;-60
2023/05/12 06:43:11;;;;;;;11.02;7.40;;;;;;;15.54;98.36;93564.50;4804978;29;20119;-59
2023/05/12 06:45:38;;;;;;;11.07;7.43;;;;;;;14.37;100.00;93568.47;4805206;29;20050;-60
2023/05/12 06:48:05;;;;;;;10.57;7.40;;;;;;;13.28;100.00;93569.69;4787686;29;20148;-60
2023/05/12 06:50:32;;;;;;;10.70;7.20;;;;;;;13.79;100.00;93568.88;4804935;29;20054;-63
2023/05/12 06:52:58;;;;;;;10.18;7.75;;;;;;;13.77;100.00;93563.03;4804036;29;20579;-60
2023/05/12 06:55:25;;;;;;;10.35;7.40;;;;;;;12.93;100.00;93564.03;4788844;29;20054;-60
2023/05/12 06:57:54;;;;;;;11.50;7.75;;;;;;;12.34;100.00;93563.38;4804358;29;20046;-60
2023/05/12 07:00:22;;;;;;;11.63;7.25;;;;;;;12.58;100.00;93568.63;4804863;29;20070;-60
2023/05/12 07:02:49;;;;;;;10.47;7.20;;;;;;;12.44;100.00;93571.78;4804198;29;20497;-60
2023/05/12 07:05:17;;;;;;;10.73;7.30;;;;;;;11.91;100.00;93578.28;4804583;29;20055;-60
2023/05/12 07:07:44;;;;;;;11.20;7.28;;;;;;;11.92;100.00;93571.56;4804052;29;20046;-61
2023/05/12 07:10:11;;;;;;;10.05;6.95;;;;;;;11.33;100.00;93575.38;4788365;29;20063;-60
2023/05/12 07:12:38;;;;;;;10.20;7.40;;;;;;;11.30;100.00;93574.25;4804904;29;20531;-64
2023/05/12 07:15:05;;;;;;;10.50;7.60;;;;;;;11.06;100.00;93576.34;4801841;29;21791;-61
2023/05/12 07:17:32;;;;;;;11.70;8.05;;;;;;;11.36;100.00;93567.03;4804541;29;20046;-61
2023/05/12 07:19:58;;;;;;;13.00;7.82;;;;;;;11.56;100.00;93572.44;4803519;29;20070;-58
2023/05/12 07:22:26;;;;;;;13.35;8.73;;;;;;;12.08;100.00;93561.75;4788261;29;20051;-59
2023/05/12 07:24:53;;;;;;;13.88;9.05;;;;;;;12.65;100.00;93564.88;4787574;29;20114;-59
2023/05/12 07:27:19;;;;;;;11.37;7.80;;;;;;;13.15;100.00;93558.66;4803949;29;20050;-62
2023/05/12 07:29:46;;;;;;;10.52;6.88;;;;;;;13.47;100.00;93567.16;4803337;29;20119;-59
2023/05/12 07:32:13;;;;;;;11.38;7.80;;;;;;;13.71;100.00;93557.31;4788141;29;20054;-58
2023/05/12 07:34:39;;;;;;;11.73;7.50;;;;;;;13.35;100.00;93565.97;4803764;29;20057;-58
2023/05/12 07:37:06;;;;;;;11.73;7.40;;;;;;;12.99;100.00;93558.75;4803760;29;20119;-61
2023/05/12 07:39:33;;;;;;;10.13;7.03;;;;;;;13.05;100.00;93572.75;4803892;29;20490;-60
2023/05/12 07:41:59;;;;;;;9.75;7.25;;;;;;;13.01;100.00;93563.84;4803222;29;20065;-60
2023/05/12 07:44:27;;;;;;;12.63;8.40;;;;;;;13.17;100.00;93564.50;4788081;29;20099;-59
2023/05/12 07:46:53;;;;;;;9.75;6.80;;;;;;;13.21;100.00;93563.63;4803500;29;20508;-59
2023/05/12 07:49:22;;;;;;;9.05;6.60;;;;;;;13.04;100.00;93563.75;4803956;29;20047;-59
2023/05/12 07:51:49;;;;;;;10.63;6.93;;;;;;;13.35;100.00;93565.97;4803199;29;20442;-60
2023/05/12 07:54:15;;;;;;;9.85;6.10;;;;;;;13.32;100.00;93561.31;4803989;29;20073;-60
2023/05/12 07:56:42;;;;;;;8.93;5.70;;;;;;;13.71;100.00;93564.81;4803440;29;20177;-59
2023/05/12 07:59:09;;;;;;;9.13;6.25;;;;;;;13.50;100.00;93558.00;4803762;29;20047;-60
2023/05/12 08:01:36;;;;;;;9.40;6.07;;;;;;;14.10;100.00;93554.44;4803659;29;20581;-60
2023/05/12 08:04:03;;;;;;;7.60;5.23;;;;;;;14.83;100.00;93568.03;4803255;29;20341;-60
2023/05/12 08:06:30;;;;;;;9.75;6.05;;;;;;;14.83;100.00;93570.00;4803377;29;20089;-60
2023/05/12 08:08:57;;;;;;;7.43;5.00;;;;;;;15.54;99.68;93552.69;4787025;29;20055;-62
2023/05/12 08:11:25;;;;;;;8.02;5.25;;;;;;;15.52;96.39;93561.44;4803264;29;20111;-63
2023/05/12 08:13:52;;;;;;;8.75;5.28;;;;;;;15.13;98.94;93554.66;4802903;29;20061;-62
2023/05/12 08:16:19;;;;;;;9.07;5.43;;;;;;;14.89;100.00;93554.38;4786737;29;20050;-60
2023/05/12 08:18:46;;;;;;;8.77;5.53;;;;;;;14.87;100.00;93559.59;4802842;29;20051;-60
2023/05/12 08:21:12;;;;;;;7.15;4.93;;;;;;;15.30;99.12;93560.75;4803075;29;20050;-60
2023/05/12 08:23:39;;;;;;;8.02;4.47;;;;;;;14.73;100.00;93561.69;4802595;29;20055;-58
2023/05/12 08:26:06;;;;;;;7.45;4.63;;;;;;;15.09;100.00;93554.81;4803177;29;20070;-63
2023/05/12 08:28:33;;;;;;;5.90;3.90;;;;;;;15.10;99.69;93556.34;4803243;29;20043;-61
2023/05/12 08:31:00;;;;;;;5.75;3.92;;;;;;;15.86;97.47;93562.47;4802774;29;20126;-60
2023/05/12 08:33:30;;;;;;;6.78;4.53;;;;;;;16.93;92.01;93550.78;4803512;29;20055;-60
2023/05/12 08:35:57;;;;;;;6.07;3.75;;;;;;;17.67;85.70;93551.25;4802485;29;20059;-62
2023/05/12 08:38:23;;;;;;;5.60;3.22;;;;;;;18.45;79.74;93547.81;4803022;29;20157;-60
2023/05/12 08:41:24;;;;;;;6.03;3.43;;;;;;;17.51;82.49;93555.19;4802531;29;20069;-60
2023/05/12 08:43:51;;;;;;;5.50;3.45;;;;;;;16.84;84.81;93559.09;4772464;29;20073;-60
2023/05/12 08:46:19;;;;;;;4.63;3.30;;;;;;;16.54;87.88;93558.78;4786788;29;20058;-63
2023/05/12 08:48:49;;;;;;;4.50;3.08;;;;;;;16.67;89.02;93556.63;4800945;29;20154;-60
2023/05/12 08:51:17;;;;;;;4.03;3.10;;;;;;;16.68;88.77;93551.84;4797258;29;20061;-60
2023/05/12 08:53:47;;;;;;;5.63;3.00;;;;;;;16.55;88.05;93555.56;4801630;29;20070;-61
2023/05/12 08:56:18;;;;;;;4.65;2.90;;;;;;;16.40;86.71;93554.66;4802853;29;20537;-64
2023/05/12 08:58:48;;;;;;;4.68;3.40;;;;;;;16.26;88.13;93560.81;4802270;29;20102;-60
2023/05/12 09:01:16;;;;;;;4.95;3.60;;;;;;;15.21;92.96;93566.97;4802442;29;20099;-60
2023/05/12 09:03:43;;;;;;;4.70;3.28;;;;;;;15.80;90.65;93564.31;4801834;29;20062;-64
2023/05/12 09:06:10;;;;;;;6.80;3.30;;;;;;;15.81;92.06;93556.75;4802359;29;20055;-60
2023/05/12 09:08:39;;;;;;;5.43;3.35;;;;;;;15.30;90.96;93555.97;4802403;29;20057;-60
2023/05/12 09:11:10;;;;;;;6.93;4.25;;;;;;;13.82;100.00;93565.22;4801560;29;20648;-60
2023/05/12 09:14:03;;;;;;;5.70;3.60;;;;;;;13.72;100.00;93566.34;4802297;29;20051;-60
2023/05/12 09:16:32;;;;;;;5.90;3.83;;;;;;;13.84;100.00;93564.78;4801374;29;20625;-60
2023/05/12 09:19:00;;;;;;;6.43;4.00;;;;;;;12.74;100.00;93563.03;4801874;29;20057;-60
2023/05/12 09:21:29;;;;;;;9.00;4.20;;;;;;;12.54;100.00;93565.22;4802016;29;20054;-63
2023/05/12 09:24:08;;;;;;;8.75;4.28;;;;;;;12.91;100.00;93566.47;4801905;29;20105;-61
2023/05/12 09:26:48;;;;;;;8.35;4.38;;;;;;;12.96;100.00;93565.94;4802450;29;20051;-61
2023/05/12 09:29:16;;;;;;;7.53;4.13;;;;;;;13.51;100.00;93552.06;4789731;29;20426;-60
2023/05/12 09:31:58;;;;;;;7.27;4.87;;;;;;;13.40;100.00;93565.41;4801854;29;20047;-59
2023/05/12 09:34:37;;;;;;;6.93;4.65;;;;;;;13.12;100.00;93558.75;4802240;29;20068;-60
2023/05/12 09:37:05;;;;;;;8.27;4.90;;;;;;;13.03;100.00;93572.44;4801866;29;20046;-59
2023/05/12 09:39:32;;;;;;;9.40;5.38;;;;;;;12.43;100.00;93575.72;4801977;29;20428;-60
2023/05/12 09:41:59;;;;;;;10.93;6.05;;;;;;;12.62;100.00;93566.53;4801594;29;20059;-62
2023/05/12 09:44:29;;;;;;;10.93;6.00;;;;;;;12.76;100.00;93573.63;4801967;29;20055;-59
2023/05/12 09:47:04;;;;;;;12.23;6.95;;;;;;;12.33;100.00;93577.56;4801165;29;20059;-59
2023/05/12 09:49:31;;;;;;;14.20;6.13;;;;;;;12.73;100.00;93578.00;4800238;29;20047;-60
2023/05/12 09:51:58;;;;;;;11.50;5.97;;;;;;;13.08;100.00;93583.69;4801523;29;20063;-60
2023/05/12 09:54:26;;;;;;;9.50;5.72;;;;;;;13.21;100.00;93580.94;4801845;29;20098;-59
2023/05/12 09:56:57;;;;;;;11.37;5.57;;;;;;;13.19;100.00;93581.34;4801274;29;20086;-59
2023/05/12 09:59:33;;;;;;;10.35;5.13;;;;;;;13.33;100.00;93573.91;4801522;29;20127;-61
2023/05/12 10:02:01;;;;;;;9.90;5.82;;;;;;;13.28;100.00;93579.91;4801225;29;20051;-63
2023/05/12 10:04:31;;;;;;;11.20;7.00;;;;;;;12.86;100.00;93588.25;4800773;29;20119;-63
2023/05/12 10:06:58;;;;;;;12.48;7.70;;;;;;;12.38;100.00;93588.81;4801125;29;20063;-60
2023/05/12 10:09:32;;;;;;;14.30;9.17;;;;;;;12.48;100.00;93589.72;4801632;29;20039;-60
2023/05/12 10:12:03;;;;;;;15.70;7.68;;;;;;;12.53;100.00;93585.66;4801327;29;20138;-62
2023/05/12 10:14:30;;;;;;;11.40;6.78;;;;;;;12.63;100.00;93590.09;4801794;29;20062;-60
2023/05/12 10:16:58;;;;;;;8.70;4.35;;;;;;;12.98;100.00;93577.28;4801105;29;20050;-59
2023/05/12 10:19:27;;;;;;;6.22;3.65;;;;;;;13.11;100.00;93579.28;4801123;29;20063;-60
2023/05/12 10:21:56;;;;;;;6.90;3.50;;;;;;;13.20;100.00;93587.66;4801403;29;20077;-60
2023/05/12 10:24:26;;;;;;;5.28;3.00;;;;;;;13.35;100.00;93577.75;4801982;29;20118;-61
2023/05/12 10:26:55;;;;;;;5.28;3.17;;;;;;;13.51;100.00;93574.09;4787260;29;20343;-62
2023/05/12 10:29:28;;;;;;;5.75;3.65;;;;;;;13.72;100.00;93586.44;4801748;29;20095;-61
2023/05/12 10:31:56;;;;;;;7.60;3.90;;;;;;;13.99;100.00;93583.16;4801252;29;20054;-61
2023/05/12 10:34:32;;;;;;;7.00;3.13;;;;;;;13.91;100.00;93589.38;4801734;29;20489;-61
2023/05/12 10:37:00;;;;;;;6.88;4.15;;;;;;;12.09;100.00;93588.03;4801050;29;20055;-62
2023/05/12 10:39:28;;;;;;;7.53;4.95;;;;;;;13.02;100.00;93587.41;4801219;29;20073;-62
2023/05/12 10:42:24;;;;;;;6.05;3.42;;;;;;;13.18;100.00;93590.09;4801187;29;20080;-61
2023/05/12 10:44:53;;;;;;;6.35;3.80;;;;;;;13.20;100.00;93587.66;4799684;29;20055;-64
2023/05/12 10:47:25;;;;;;;6.27;3.40;;;;;;;12.74;100.00;93578.78;4801449;29;20136;-65
2023/05/12 10:49:59;;;;;;;10.57;6.25;;;;;;;13.55;100.00;93574.00;4799102;29;20111;-61
2023/05/12 10:52:25;;;;;;;8.50;4.82;;;;;;;14.13;100.00;93573.63;4801463;29;20065;-61
2023/05/12 10:55:00;;;;;;;5.65;3.22;;;;;;;13.98;100.00;93573.38;4800760;29;20184;-64
2023/05/12 10:57:27;;;;;;;11.05;8.18;;;;;;;14.02;100.00;93573.22;4801325;29;20059;-60
2023/05/12 10:59:59;;;;;;;14.10;10.27;;;;;;;13.97;100.00;93555.25;4800954;29;20050;-59
2023/05/12 11:02:29;;;;;;;10.98;7.75;;;;;;;13.71;100.00;93573.84;4801291;29;20090;-60
2023/05/12 11:05:02;;;;;;;4.57;3.20;;;;;;;13.16;100.00;93568.47;4800831;29;20529;-60
2023/05/12 11:07:32;;;;;;;8.48;3.53;;;;;;;12.28;100.00;93570.63;4800970;29;20473;-59
2023/05/12 11:10:02;;;;;;;5.78;2.83;;;;;;;12.06;100.00;93581.44;4800980;29;20046;-63
2023/05/12 11:12:32;;;;;;;5.37;2.93;;;;;;;12.09;100.00;93579.78;4801311;29;20047;-61
2023/05/12 11:15:00;;;;;;;6.57;3.00;;;;;;;11.97;100.00;93579.31;4800853;29;20050;-61
2023/05/12 11:17:27;;;;;;;4.78;2.50;;;;;;;12.70;100.00;93576.13;4803952;29;20046;-63
2023/05/12 11:19:55;;;;;;;4.10;2.70;;;;;;;13.20;100.00;93568.38;4803742;29;20577;-61
2023/05/12 11:22:22;;;;;;;4.22;2.85;;;;;;;12.91;100.00;93568.47;4804368;29;20043;-60
2023/05/12 11:24:51;;;;;;;5.00;3.03;;;;;;;13.03;100.00;93570.44;4803629;29;20069;-60
2023/05/12 11:27:21;;;;;;;4.93;3.60;;;;;;;13.39;100.00;93575.66;4803968;29;20062;-60
2023/05/12 11:29:57;;;;;;;5.53;3.45;;;;;;;13.92;100.00;93579.88;4790997;29;20087;-61